Martin, Utah
Current Conditions -  °F | °C
As of 6:08 PM on Saturday 22 Nov 2014 (Local Time) from KPUC Reporting Station
Light Snow Light Snow  
Wind Chill: 27°   Ceiling: 600
Heat Index: 32°   Visibility: 0.75mi
Dew Point: 29°   Wind: 5mph
Humidity: 88%   Direction: 40°NE
Pressure: 29.84"   Gusts: NA
Location:  39.7304°N, 110.917°W
Report Text: KPUC 230108Z AUTO 04004KT 3/4SM -SN BR FEW002 OVC006 00/M02 A2984 RMK AO2 P0002 T00001017
Loading
Personal Weather Stations






























Interactive Weather Map New forecast layout! Learn more

10-Day Weather Forecast

Advertisements
Track Severe Weather on mobile